sensor_id;sensor_type;location;lat;lon;timestamp;P1;durP1;ratioP1;P2;durP2;ratioP2
73315;SDS011;61545;53.726;-0.444;2022-07-23T00:02:00;3.0;;;1;;
73315;SDS011;61545;53.726;-0.444;2022-07-23T00:07:00;2.1;;;0.8;;
73315;SDS011;61545;53.726;-0.444;2022-07-23T00:12:00;2.1;;;0.8;;
73315;SDS011;61545;53.726;-0.444;2022-07-23T00:17:00;3.1;;;0.9;;
73315;SDS011;61545;53.726;-0.444;2022-07-23T00:22:00;3.8;;;0.9;;
73315;SDS011;61545;53.726;-0.444;2022-07-23T00:27:00;3.3;;;0.9;;
73315;SDS011;61545;53.726;-0.444;2022-07-23T00:32:00;2.3;;;1;;
73315;SDS011;61545;53.726;-0.444;2022-07-23T00:37:00;2.3;;;0.9;;
73315;SDS011;61545;53.726;-0.444;2022-07-23T00:42:00;2.3;;;0.9;;
73315;SDS011;61545;53.726;-0.444;2022-07-23T00:47:00;2.0;;;0.9;;
73315;SDS011;61545;53.726;-0.444;2022-07-23T00:52:01;3.0;;;0.8;;
73315;SDS011;61545;53.726;-0.444;2022-07-23T00:57:00;2.9;;;0.9;;
73315;SDS011;61545;53.726;-0.444;2022-07-23T01:02:00;3.5;;;1;;
73315;SDS011;61545;53.726;-0.444;2022-07-23T01:07:00;2.7;;;0.9;;
73315;SDS011;61545;53.726;-0.444;2022-07-23T01:12:00;2.7;;;0.9;;
73315;SDS011;61545;53.726;-0.444;2022-07-23T01:17:00;1.8;;;0.9;;
73315;SDS011;61545;53.726;-0.444;2022-07-23T01:22:02;2.6;;;0.7;;
73315;SDS011;61545;53.726;-0.444;2022-07-23T01:27:00;3.3;;;1.1;;
73315;SDS011;61545;53.726;-0.444;2022-07-23T01:32:00;2.8;;;1;;
73315;SDS011;61545;53.726;-0.444;2022-07-23T01:37:00;4.3;;;1.1;;
73315;SDS011;61545;53.726;-0.444;2022-07-23T01:42:00;4.3;;;1.1;;
73315;SDS011;61545;53.726;-0.444;2022-07-23T01:47:00;2.1;;;0.9;;
73315;SDS011;61545;53.726;-0.444;2022-07-23T01:52:00;4.0;;;1.1;;
73315;SDS011;61545;53.726;-0.444;2022-07-23T01:57:00;3.2;;;1.3;;
73315;SDS011;61545;53.726;-0.444;2022-07-23T02:02:00;3.2;;;1.1;;
73315;SDS011;61545;53.726;-0.444;2022-07-23T02:07:00;2.6;;;1.2;;
73315;SDS011;61545;53.726;-0.444;2022-07-23T02:12:00;2.6;;;1.2;;
73315;SDS011;61545;53.726;-0.444;2022-07-23T02:17:00;2.2;;;1;;
73315;SDS011;61545;53.726;-0.444;2022-07-23T02:22:00;3.9;;;1;;
73315;SDS011;61545;53.726;-0.444;2022-07-23T02:27:00;3.6;;;1.1;;
73315;SDS011;61545;53.726;-0.444;2022-07-23T02:32:00;2.0;;;0.9;;
73315;SDS011;61545;53.726;-0.444;2022-07-23T02:37:00;4.2;;;1.1;;
73315;SDS011;61545;53.726;-0.444;2022-07-23T02:42:00;4.2;;;1.1;;
73315;SDS011;61545;53.726;-0.444;2022-07-23T02:47:00;5.0;;;1.1;;
73315;SDS011;61545;53.726;-0.444;2022-07-23T02:52:00;3.5;;;1.2;;
73315;SDS011;61545;53.726;-0.444;2022-07-23T02:57:00;2.4;;;0.7;;
73315;SDS011;61545;53.726;-0.444;2022-07-23T03:02:00;4.4;;;1.4;;
73315;SDS011;61545;53.726;-0.444;2022-07-23T03:07:00;3.3;;;1.4;;
73315;SDS011;61545;53.726;-0.444;2022-07-23T03:12:00;3.3;;;1.4;;
73315;SDS011;61545;53.726;-0.444;2022-07-23T03:17:00;3.9;;;1.1;;
73315;SDS011;61545;53.726;-0.444;2022-07-23T03:22:00;3.7;;;1.2;;
73315;SDS011;61545;53.726;-0.444;2022-07-23T03:27:00;4.8;;;1.6;;
73315;SDS011;61545;53.726;-0.444;2022-07-23T03:32:00;3.8;;;1.3;;
73315;SDS011;61545;53.726;-0.444;2022-07-23T03:37:00;5.8;;;1.4;;
73315;SDS011;61545;53.726;-0.444;2022-07-23T03:42:00;5.8;;;1.4;;
73315;SDS011;61545;53.726;-0.444;2022-07-23T03:47:00;4.6;;;1.3;;
73315;SDS011;61545;53.726;-0.444;2022-07-23T03:52:00;4.9;;;1.2;;
73315;SDS011;61545;53.726;-0.444;2022-07-23T03:57:00;5.3;;;1.2;;
73315;SDS011;61545;53.726;-0.444;2022-07-23T04:02:00;3.9;;;1.3;;
73315;SDS011;61545;53.726;-0.444;2022-07-23T04:07:00;3.6;;;1.2;;
73315;SDS011;61545;53.726;-0.444;2022-07-23T04:12:00;3.6;;;1.2;;
73315;SDS011;61545;53.726;-0.444;2022-07-23T04:17:00;6.4;;;1.9;;
73315;SDS011;61545;53.726;-0.444;2022-07-23T04:22:00;2.0;;;1.4;;
73315;SDS011;61545;53.726;-0.444;2022-07-23T04:27:01;4.1;;;1.5;;
73315;SDS011;61545;53.726;-0.444;2022-07-23T04:32:00;5.0;;;1.8;;
73315;SDS011;61545;53.726;-0.444;2022-07-23T04:37:00;6.5;;;1.6;;
73315;SDS011;61545;53.726;-0.444;2022-07-23T04:42:00;6.5;;;1.6;;
73315;SDS011;61545;53.726;-0.444;2022-07-23T04:47:00;4.0;;;1.5;;
73315;SDS011;61545;53.726;-0.444;2022-07-23T04:52:00;4.6;;;1.8;;
73315;SDS011;61545;53.726;-0.444;2022-07-23T04:57:00;4.9;;;1.7;;
73315;SDS011;61545;53.726;-0.444;2022-07-23T05:02:00;2.7;;;1.6;;
73315;SDS011;61545;53.726;-0.444;2022-07-23T05:07:00;4.3;;;1.4;;
73315;SDS011;61545;53.726;-0.444;2022-07-23T05:12:00;4.3;;;1.4;;
73315;SDS011;61545;53.726;-0.444;2022-07-23T05:17:00;3.2;;;1.4;;
73315;SDS011;61545;53.726;-0.444;2022-07-23T05:22:00;6.7;;;1.8;;
73315;SDS011;61545;53.726;-0.444;2022-07-23T05:27:00;5.0;;;1.8;;
73315;SDS011;61545;53.726;-0.444;2022-07-23T05:32:00;3.5;;;1.6;;
73315;SDS011;61545;53.726;-0.444;2022-07-23T05:37:00;4.9;;;2;;
73315;SDS011;61545;53.726;-0.444;2022-07-23T05:42:00;4.9;;;2;;
73315;SDS011;61545;53.726;-0.444;2022-07-23T05:47:00;4.7;;;2.1;;
73315;SDS011;61545;53.726;-0.444;2022-07-23T05:52:03;3.0;;;1.4;;
73315;SDS011;61545;53.726;-0.444;2022-07-23T05:57:00;3.8;;;1.6;;
73315;SDS011;61545;53.726;-0.444;2022-07-23T06:02:00;5.2;;;2.1;;
73315;SDS011;61545;53.726;-0.444;2022-07-23T06:07:00;4.5;;;1.8;;
73315;SDS011;61545;53.726;-0.444;2022-07-23T06:12:00;4.5;;;1.8;;
73315;SDS011;61545;53.726;-0.444;2022-07-23T06:17:00;8.3;;;2.3;;
73315;SDS011;61545;53.726;-0.444;2022-07-23T06:22:00;3.8;;;1.4;;
73315;SDS011;61545;53.726;-0.444;2022-07-23T06:27:00;4.6;;;2.1;;
73315;SDS011;61545;53.726;-0.444;2022-07-23T06:32:00;5.1;;;1.5;;
73315;SDS011;61545;53.726;-0.444;2022-07-23T06:37:00;4.5;;;2;;
73315;SDS011;61545;53.726;-0.444;2022-07-23T06:42:00;4.5;;;2;;
73315;SDS011;61545;53.726;-0.444;2022-07-23T06:47:00;5.3;;;2.5;;
73315;SDS011;61545;53.726;-0.444;2022-07-23T06:52:00;8.3;;;2.2;;
73315;SDS011;61545;53.726;-0.444;2022-07-23T06:57:00;4.0;;;2;;
73315;SDS011;61545;53.726;-0.444;2022-07-23T07:02:00;4.0;;;2.1;;
73315;SDS011;61545;53.726;-0.444;2022-07-23T07:07:00;6.2;;;1.9;;
73315;SDS011;61545;53.726;-0.444;2022-07-23T07:12:00;6.2;;;1.9;;
73315;SDS011;61545;53.726;-0.444;2022-07-23T07:17:00;4.5;;;1.8;;
73315;SDS011;61545;53.726;-0.444;2022-07-23T07:22:00;3.2;;;1.6;;
73315;SDS011;61545;53.726;-0.444;2022-07-23T07:27:00;6.1;;;2.5;;
73315;SDS011;61545;53.726;-0.444;2022-07-23T07:32:00;3.6;;;1.8;;
73315;SDS011;61545;53.726;-0.444;2022-07-23T07:37:00;3.6;;;1.8;;
73315;SDS011;61545;53.726;-0.444;2022-07-23T07:42:00;7.3;;;2.6;;
73315;SDS011;61545;53.726;-0.444;2022-07-23T07:47:00;6.1;;;2.8;;
73315;SDS011;61545;53.726;-0.444;2022-07-23T07:52:00;8.4;;;2.7;;
73315;SDS011;61545;53.726;-0.444;2022-07-23T07:57:00;7.7;;;2.6;;
73315;SDS011;61545;53.726;-0.444;2022-07-23T08:02:00;7.7;;;2.5;;
73315;SDS011;61545;53.726;-0.444;2022-07-23T08:07:00;7.7;;;2.5;;
73315;SDS011;61545;53.726;-0.444;2022-07-23T08:12:00;11.2;;;3.7;;
73315;SDS011;61545;53.726;-0.444;2022-07-23T08:17:00;6.8;;;3.5;;
73315;SDS011;61545;53.726;-0.444;2022-07-23T08:22:00;10.6;;;3.9;;
73315;SDS011;61545;53.726;-0.444;2022-07-23T08:27:00;10.4;;;3.7;;
73315;SDS011;61545;53.726;-0.444;2022-07-23T08:32:00;6.4;;;3;;
73315;SDS011;61545;53.726;-0.444;2022-07-23T08:37:00;6.4;;;3;;
73315;SDS011;61545;53.726;-0.444;2022-07-23T08:42:00;9.4;;;3.4;;
73315;SDS011;61545;53.726;-0.444;2022-07-23T08:47:00;10.3;;;3.8;;
73315;SDS011;61545;53.726;-0.444;2022-07-23T08:52:00;7.5;;;3.6;;
73315;SDS011;61545;53.726;-0.444;2022-07-23T08:57:00;8.4;;;3.9;;
73315;SDS011;61545;53.726;-0.444;2022-07-23T09:02:00;7.8;;;3.6;;
73315;SDS011;61545;53.726;-0.444;2022-07-23T09:07:01;7.8;;;3.6;;
73315;SDS011;61545;53.726;-0.444;2022-07-23T09:12:02;9.9;;;4.4;;
73315;SDS011;61545;53.726;-0.444;2022-07-23T09:17:08;10.0;;;4.1;;
73315;SDS011;61545;53.726;-0.444;2022-07-23T09:22:16;4.7;;;2.7;;
73315;SDS011;61545;53.726;-0.444;2022-07-23T09:27:00;5.9;;;3.6;;
73315;SDS011;61545;53.726;-0.444;2022-07-23T09:32:01;5.7;;;3;;
73315;SDS011;61545;53.726;-0.444;2022-07-23T09:37:08;5.7;;;3;;
73315;SDS011;61545;53.726;-0.444;2022-07-23T09:42:12;9.2;;;4.9;;
73315;SDS011;61545;53.726;-0.444;2022-07-23T09:47:00;7.2;;;3.8;;
73315;SDS011;61545;53.726;-0.444;2022-07-23T09:52:00;8.6;;;4.5;;
73315;SDS011;61545;53.726;-0.444;2022-07-23T09:57:02;7.5;;;3.5;;
73315;SDS011;61545;53.726;-0.444;2022-07-23T10:02:00;7.8;;;4;;
73315;SDS011;61545;53.726;-0.444;2022-07-23T10:07:01;7.8;;;4;;
73315;SDS011;61545;53.726;-0.444;2022-07-23T10:12:02;8.1;;;4.2;;
73315;SDS011;61545;53.726;-0.444;2022-07-23T10:17:00;7.6;;;3.7;;
73315;SDS011;61545;53.726;-0.444;2022-07-23T10:22:02;7.9;;;4.4;;
73315;SDS011;61545;53.726;-0.444;2022-07-23T10:27:04;5.9;;;3.8;;
73315;SDS011;61545;53.726;-0.444;2022-07-23T10:32:02;4.5;;;2.7;;
73315;SDS011;61545;53.726;-0.444;2022-07-23T10:37:03;4.5;;;2.7;;
73315;SDS011;61545;53.726;-0.444;2022-07-23T10:42:07;7.7;;;2.4;;
73315;SDS011;61545;53.726;-0.444;2022-07-23T10:47:01;5.0;;;2.4;;
73315;SDS011;61545;53.726;-0.444;2022-07-23T10:52:17;5.8;;;3;;
73315;SDS011;61545;53.726;-0.444;2022-07-23T10:57:06;7.2;;;3.4;;
73315;SDS011;61545;53.726;-0.444;2022-07-23T11:02:20;3.8;;;2.5;;
73315;SDS011;61545;53.726;-0.444;2022-07-23T11:07:07;3.8;;;2.5;;
73315;SDS011;61545;53.726;-0.444;2022-07-23T11:17:00;5.0;;;2.3;;
73315;SDS011;61545;53.726;-0.444;2022-07-23T11:22:00;5.1;;;2.7;;
73315;SDS011;61545;53.726;-0.444;2022-07-23T11:27:02;8.1;;;2.6;;
73315;SDS011;61545;53.726;-0.444;2022-07-23T11:32:01;5.1;;;2.4;;
73315;SDS011;61545;53.726;-0.444;2022-07-23T11:37:01;5.1;;;2.4;;
73315;SDS011;61545;53.726;-0.444;2022-07-23T11:42:01;4.9;;;2.7;;
73315;SDS011;61545;53.726;-0.444;2022-07-23T11:47:01;8.9;;;2.8;;
73315;SDS011;61545;53.726;-0.444;2022-07-23T11:52:04;7.4;;;3.4;;
73315;SDS011;61545;53.726;-0.444;2022-07-23T11:57:01;7.9;;;3.4;;
73315;SDS011;61545;53.726;-0.444;2022-07-23T12:02:01;4.7;;;2.6;;
73315;SDS011;61545;53.726;-0.444;2022-07-23T12:07:00;4.7;;;2.6;;
73315;SDS011;61545;53.726;-0.444;2022-07-23T12:12:00;5.9;;;2.3;;
73315;SDS011;61545;53.726;-0.444;2022-07-23T12:17:08;6.4;;;2.7;;
73315;SDS011;61545;53.726;-0.444;2022-07-23T12:22:00;7.6;;;3.3;;
73315;SDS011;61545;53.726;-0.444;2022-07-23T12:27:08;5.4;;;2.8;;
73315;SDS011;61545;53.726;-0.444;2022-07-23T12:32:00;7.0;;;2.7;;
73315;SDS011;61545;53.726;-0.444;2022-07-23T12:37:00;7.0;;;2.7;;
73315;SDS011;61545;53.726;-0.444;2022-07-23T12:42:00;5.9;;;3;;
73315;SDS011;61545;53.726;-0.444;2022-07-23T12:47:02;8.6;;;4.4;;
73315;SDS011;61545;53.726;-0.444;2022-07-23T12:52:00;9.1;;;4.2;;
73315;SDS011;61545;53.726;-0.444;2022-07-23T12:57:00;5.5;;;4.2;;
73315;SDS011;61545;53.726;-0.444;2022-07-23T13:02:00;7.3;;;4.7;;
73315;SDS011;61545;53.726;-0.444;2022-07-23T13:07:00;7.3;;;4.7;;
73315;SDS011;61545;53.726;-0.444;2022-07-23T13:12:00;7.8;;;3.7;;
73315;SDS011;61545;53.726;-0.444;2022-07-23T13:17:00;8.6;;;4.1;;
73315;SDS011;61545;53.726;-0.444;2022-07-23T13:22:00;6.3;;;3.3;;
73315;SDS011;61545;53.726;-0.444;2022-07-23T13:27:00;4.6;;;2.5;;
73315;SDS011;61545;53.726;-0.444;2022-07-23T13:32:00;4.7;;;2.6;;
73315;SDS011;61545;53.726;-0.444;2022-07-23T13:37:00;4.7;;;2.6;;
73315;SDS011;61545;53.726;-0.444;2022-07-23T13:42:00;3.2;;;2;;
73315;SDS011;61545;53.726;-0.444;2022-07-23T13:47:00;4.6;;;2;;
73315;SDS011;61545;53.726;-0.444;2022-07-23T13:52:01;5.5;;;2;;
73315;SDS011;61545;53.726;-0.444;2022-07-23T13:57:00;9.6;;;2.2;;
73315;SDS011;61545;53.726;-0.444;2022-07-23T14:02:00;4.1;;;1.8;;
73315;SDS011;61545;53.726;-0.444;2022-07-23T14:07:00;4.1;;;1.8;;
73315;SDS011;61545;53.726;-0.444;2022-07-23T14:12:00;4.4;;;1.4;;
73315;SDS011;61545;53.726;-0.444;2022-07-23T14:17:00;1.6;;;1.4;;
73315;SDS011;61545;53.726;-0.444;2022-07-23T14:22:00;2.7;;;1.4;;
73315;SDS011;61545;53.726;-0.444;2022-07-23T14:27:01;2.5;;;1.5;;
73315;SDS011;61545;53.726;-0.444;2022-07-23T14:32:00;5.1;;;1.9;;
73315;SDS011;61545;53.726;-0.444;2022-07-23T14:37:00;5.1;;;1.9;;
73315;SDS011;61545;53.726;-0.444;2022-07-23T14:42:00;1.7;;;1.3;;
73315;SDS011;61545;53.726;-0.444;2022-07-23T14:47:00;2.9;;;1.6;;
73315;SDS011;61545;53.726;-0.444;2022-07-23T14:52:00;2.0;;;1.4;;
73315;SDS011;61545;53.726;-0.444;2022-07-23T14:57:01;1.4;;;1.2;;
73315;SDS011;61545;53.726;-0.444;2022-07-23T15:02:00;2.8;;;1.5;;
73315;SDS011;61545;53.726;-0.444;2022-07-23T15:07:00;2.8;;;1.5;;
73315;SDS011;61545;53.726;-0.444;2022-07-23T15:12:00;2.6;;;1.5;;
73315;SDS011;61545;53.726;-0.444;2022-07-23T15:17:00;3.0;;;1.4;;
73315;SDS011;61545;53.726;-0.444;2022-07-23T15:22:00;7.3;;;2.4;;
73315;SDS011;61545;53.726;-0.444;2022-07-23T15:27:00;3.5;;;1.7;;
73315;SDS011;61545;53.726;-0.444;2022-07-23T15:32:00;2.9;;;1.7;;
73315;SDS011;61545;53.726;-0.444;2022-07-23T15:37:00;2.9;;;1.7;;
73315;SDS011;61545;53.726;-0.444;2022-07-23T15:42:00;1.9;;;1.5;;
73315;SDS011;61545;53.726;-0.444;2022-07-23T15:47:00;2.9;;;1.6;;
73315;SDS011;61545;53.726;-0.444;2022-07-23T15:52:00;3.3;;;1.2;;
73315;SDS011;61545;53.726;-0.444;2022-07-23T15:57:00;3.4;;;1.4;;
73315;SDS011;61545;53.726;-0.444;2022-07-23T16:02:00;3.4;;;1.3;;
73315;SDS011;61545;53.726;-0.444;2022-07-23T16:07:00;3.4;;;1.3;;
73315;SDS011;61545;53.726;-0.444;2022-07-23T16:12:00;2.8;;;1.5;;
73315;SDS011;61545;53.726;-0.444;2022-07-23T16:17:00;2.4;;;1.3;;
73315;SDS011;61545;53.726;-0.444;2022-07-23T16:22:00;4.2;;;1.5;;
73315;SDS011;61545;53.726;-0.444;2022-07-23T16:27:00;3.9;;;1.5;;
73315;SDS011;61545;53.726;-0.444;2022-07-23T16:32:00;3.4;;;1.7;;
73315;SDS011;61545;53.726;-0.444;2022-07-23T16:37:00;3.4;;;1.7;;
73315;SDS011;61545;53.726;-0.444;2022-07-23T16:42:00;3.2;;;1.8;;
73315;SDS011;61545;53.726;-0.444;2022-07-23T16:47:00;3.3;;;1.8;;
73315;SDS011;61545;53.726;-0.444;2022-07-23T16:52:00;3.7;;;1.9;;
73315;SDS011;61545;53.726;-0.444;2022-07-23T16:57:00;6.1;;;2.4;;
73315;SDS011;61545;53.726;-0.444;2022-07-23T17:02:00;3.2;;;2;;
73315;SDS011;61545;53.726;-0.444;2022-07-23T17:07:00;3.2;;;2;;
73315;SDS011;61545;53.726;-0.444;2022-07-23T17:12:00;2.9;;;1.8;;
73315;SDS011;61545;53.726;-0.444;2022-07-23T17:17:00;3.3;;;1.9;;
73315;SDS011;61545;53.726;-0.444;2022-07-23T17:22:00;2.8;;;1.7;;
73315;SDS011;61545;53.726;-0.444;2022-07-23T17:27:00;4.0;;;2;;
73315;SDS011;61545;53.726;-0.444;2022-07-23T17:32:00;6.5;;;2.6;;
73315;SDS011;61545;53.726;-0.444;2022-07-23T17:37:00;6.5;;;2.6;;
73315;SDS011;61545;53.726;-0.444;2022-07-23T17:42:00;3.6;;;1.8;;
73315;SDS011;61545;53.726;-0.444;2022-07-23T17:47:00;4.4;;;2;;
73315;SDS011;61545;53.726;-0.444;2022-07-23T17:52:00;2.4;;;1.8;;
73315;SDS011;61545;53.726;-0.444;2022-07-23T17:57:00;2.7;;;2.1;;
73315;SDS011;61545;53.726;-0.444;2022-07-23T18:02:00;3.9;;;2;;
73315;SDS011;61545;53.726;-0.444;2022-07-23T18:07:00;3.9;;;2;;
73315;SDS011;61545;53.726;-0.444;2022-07-23T18:12:00;4.4;;;2.4;;
73315;SDS011;61545;53.726;-0.444;2022-07-23T18:17:00;6.3;;;2.8;;
73315;SDS011;61545;53.726;-0.444;2022-07-23T18:22:00;4.1;;;2.3;;
73315;SDS011;61545;53.726;-0.444;2022-07-23T18:27:00;5.6;;;2.3;;
73315;SDS011;61545;53.726;-0.444;2022-07-23T18:32:00;7.2;;;2.3;;
73315;SDS011;61545;53.726;-0.444;2022-07-23T18:37:00;7.2;;;2.3;;
73315;SDS011;61545;53.726;-0.444;2022-07-23T18:42:00;4.1;;;2;;
73315;SDS011;61545;53.726;-0.444;2022-07-23T18:47:00;4.2;;;2.6;;
73315;SDS011;61545;53.726;-0.444;2022-07-23T18:52:00;7.2;;;3.3;;
73315;SDS011;61545;53.726;-0.444;2022-07-23T18:57:00;5.1;;;2.3;;
73315;SDS011;61545;53.726;-0.444;2022-07-23T19:02:00;3.1;;;2.1;;
73315;SDS011;61545;53.726;-0.444;2022-07-23T19:07:00;3.1;;;2.1;;
73315;SDS011;61545;53.726;-0.444;2022-07-23T19:12:00;4.6;;;1.9;;
73315;SDS011;61545;53.726;-0.444;2022-07-23T19:17:00;3.7;;;1.9;;
73315;SDS011;61545;53.726;-0.444;2022-07-23T19:22:00;2.4;;;1.8;;
73315;SDS011;61545;53.726;-0.444;2022-07-23T19:27:00;4.2;;;1.9;;
73315;SDS011;61545;53.726;-0.444;2022-07-23T19:32:01;2.3;;;1.8;;
73315;SDS011;61545;53.726;-0.444;2022-07-23T19:37:00;2.3;;;1.8;;
73315;SDS011;61545;53.726;-0.444;2022-07-23T19:42:00;2.9;;;1.7;;
73315;SDS011;61545;53.726;-0.444;2022-07-23T19:47:00;2.4;;;1.8;;
73315;SDS011;61545;53.726;-0.444;2022-07-23T19:52:00;3.3;;;1.6;;
73315;SDS011;61545;53.726;-0.444;2022-07-23T19:57:00;2.9;;;1.8;;
73315;SDS011;61545;53.726;-0.444;2022-07-23T20:02:00;3.9;;;1.7;;
73315;SDS011;61545;53.726;-0.444;2022-07-23T20:07:00;3.9;;;1.7;;
73315;SDS011;61545;53.726;-0.444;2022-07-23T20:12:00;3.2;;;1.8;;
73315;SDS011;61545;53.726;-0.444;2022-07-23T20:17:01;2.2;;;1.5;;
73315;SDS011;61545;53.726;-0.444;2022-07-23T20:22:00;3.1;;;1.6;;
73315;SDS011;61545;53.726;-0.444;2022-07-23T20:27:00;1.8;;;1.4;;
73315;SDS011;61545;53.726;-0.444;2022-07-23T20:32:00;1.9;;;1.5;;
73315;SDS011;61545;53.726;-0.444;2022-07-23T20:37:00;1.9;;;1.5;;
73315;SDS011;61545;53.726;-0.444;2022-07-23T20:42:00;1.7;;;1.3;;
73315;SDS011;61545;53.726;-0.444;2022-07-23T20:47:00;2.9;;;1.5;;
73315;SDS011;61545;53.726;-0.444;2022-07-23T20:52:00;3.0;;;1.9;;
73315;SDS011;61545;53.726;-0.444;2022-07-23T20:57:00;1.9;;;1.4;;
73315;SDS011;61545;53.726;-0.444;2022-07-23T21:02:00;3.5;;;1.7;;
73315;SDS011;61545;53.726;-0.444;2022-07-23T21:07:00;3.5;;;1.7;;
73315;SDS011;61545;53.726;-0.444;2022-07-23T21:12:00;2.5;;;1.6;;
73315;SDS011;61545;53.726;-0.444;2022-07-23T21:17:00;2.6;;;1.5;;
73315;SDS011;61545;53.726;-0.444;2022-07-23T21:22:00;2.2;;;1.3;;
73315;SDS011;61545;53.726;-0.444;2022-07-23T21:27:00;2.1;;;1.5;;
73315;SDS011;61545;53.726;-0.444;2022-07-23T21:32:00;2.7;;;1.3;;
73315;SDS011;61545;53.726;-0.444;2022-07-23T21:37:00;2.7;;;1.3;;
73315;SDS011;61545;53.726;-0.444;2022-07-23T21:42:00;2.6;;;1.3;;
73315;SDS011;61545;53.726;-0.444;2022-07-23T21:47:00;2.6;;;1.3;;
73315;SDS011;61545;53.726;-0.444;2022-07-23T21:52:00;2.7;;;1.2;;
73315;SDS011;61545;53.726;-0.444;2022-07-23T21:57:00;3.3;;;1.6;;
73315;SDS011;61545;53.726;-0.444;2022-07-23T22:02:00;2.6;;;1.6;;
73315;SDS011;61545;53.726;-0.444;2022-07-23T22:07:00;2.6;;;1.6;;
73315;SDS011;61545;53.726;-0.444;2022-07-23T22:12:00;2.8;;;1.7;;
73315;SDS011;61545;53.726;-0.444;2022-07-23T22:17:00;4.9;;;1.9;;
73315;SDS011;61545;53.726;-0.444;2022-07-23T22:22:00;5.8;;;1.4;;
73315;SDS011;61545;53.726;-0.444;2022-07-23T22:27:00;3.8;;;1.7;;
73315;SDS011;61545;53.726;-0.444;2022-07-23T22:32:00;2.7;;;1.5;;
73315;SDS011;61545;53.726;-0.444;2022-07-23T22:37:00;2.7;;;1.5;;
73315;SDS011;61545;53.726;-0.444;2022-07-23T22:42:00;2.6;;;1.6;;
73315;SDS011;61545;53.726;-0.444;2022-07-23T22:47:00;7.3;;;1.9;;
73315;SDS011;61545;53.726;-0.444;2022-07-23T22:52:00;5.8;;;1.9;;
73315;SDS011;61545;53.726;-0.444;2022-07-23T22:57:00;2.6;;;1.9;;
73315;SDS011;61545;53.726;-0.444;2022-07-23T23:02:00;2.6;;;1.9;;
73315;SDS011;61545;53.726;-0.444;2022-07-23T23:07:00;3.8;;;1.8;;
73315;SDS011;61545;53.726;-0.444;2022-07-23T23:12:00;4.0;;;1.9;;
73315;SDS011;61545;53.726;-0.444;2022-07-23T23:17:00;5.3;;;2;;
73315;SDS011;61545;53.726;-0.444;2022-07-23T23:22:00;4.0;;;1.9;;
73315;SDS011;61545;53.726;-0.444;2022-07-23T23:27:00;4.1;;;2.1;;
73315;SDS011;61545;53.726;-0.444;2022-07-23T23:32:00;4.1;;;2.1;;
73315;SDS011;61545;53.726;-0.444;2022-07-23T23:37:00;3.8;;;2.3;;
73315;SDS011;61545;53.726;-0.444;2022-07-23T23:42:00;4.0;;;2.2;;
73315;SDS011;61545;53.726;-0.444;2022-07-23T23:47:00;4.9;;;2.4;;
73315;SDS011;61545;53.726;-0.444;2022-07-23T23:52:00;3.7;;;2.2;;
73315;SDS011;61545;53.726;-0.444;2022-07-23T23:57:00;5.1;;;2.1;;
